sensor_id;sensor_type;location;lat;lon;timestamp;P1;durP1;ratioP1;P2;durP2;ratioP2
25163;SDS011;13440;50.860;13.662;2023-05-07T00:00:45;14.02;;;10.95;;
25163;SDS011;13440;50.860;13.662;2023-05-07T00:03:10;13.07;;;10.65;;
25163;SDS011;13440;50.860;13.662;2023-05-07T00:05:36;14.05;;;10.60;;
25163;SDS011;13440;50.860;13.662;2023-05-07T00:08:03;13.00;;;10.77;;
25163;SDS011;13440;50.860;13.662;2023-05-07T00:10:28;16.58;;;11.23;;
25163;SDS011;13440;50.860;13.662;2023-05-07T00:12:53;14.15;;;11.40;;
25163;SDS011;13440;50.860;13.662;2023-05-07T00:15:19;14.88;;;10.70;;
25163;SDS011;13440;50.860;13.662;2023-05-07T00:17:44;13.18;;;10.48;;
25163;SDS011;13440;50.860;13.662;2023-05-07T00:20:10;15.43;;;12.07;;
25163;SDS011;13440;50.860;13.662;2023-05-07T00:22:35;16.02;;;11.45;;
25163;SDS011;13440;50.860;13.662;2023-05-07T00:25:01;17.35;;;12.30;;
25163;SDS011;13440;50.860;13.662;2023-05-07T00:27:26;20.30;;;15.02;;
25163;SDS011;13440;50.860;13.662;2023-05-07T00:29:52;21.95;;;15.63;;
25163;SDS011;13440;50.860;13.662;2023-05-07T00:32:17;20.65;;;15.90;;
25163;SDS011;13440;50.860;13.662;2023-05-07T00:34:43;24.75;;;17.27;;
25163;SDS011;13440;50.860;13.662;2023-05-07T00:37:08;23.05;;;16.58;;
25163;SDS011;13440;50.860;13.662;2023-05-07T00:39:34;22.65;;;16.08;;
25163;SDS011;13440;50.860;13.662;2023-05-07T00:41:59;21.40;;;15.40;;
25163;SDS011;13440;50.860;13.662;2023-05-07T00:44:25;25.88;;;17.67;;
25163;SDS011;13440;50.860;13.662;2023-05-07T00:46:51;23.55;;;17.15;;
25163;SDS011;13440;50.860;13.662;2023-05-07T00:49:16;21.95;;;16.48;;
25163;SDS011;13440;50.860;13.662;2023-05-07T00:51:43;25.65;;;17.60;;
25163;SDS011;13440;50.860;13.662;2023-05-07T00:54:09;26.20;;;17.08;;
25163;SDS011;13440;50.860;13.662;2023-05-07T00:56:34;26.17;;;16.05;;
25163;SDS011;13440;50.860;13.662;2023-05-07T00:59:01;24.33;;;16.13;;
25163;SDS011;13440;50.860;13.662;2023-05-07T01:01:26;26.42;;;16.50;;
25163;SDS011;13440;50.860;13.662;2023-05-07T01:03:52;24.25;;;15.55;;
25163;SDS011;13440;50.860;13.662;2023-05-07T01:06:18;26.58;;;17.27;;
25163;SDS011;13440;50.860;13.662;2023-05-07T01:08:43;25.85;;;16.58;;
25163;SDS011;13440;50.860;13.662;2023-05-07T01:11:09;26.30;;;17.13;;
25163;SDS011;13440;50.860;13.662;2023-05-07T01:13:36;24.60;;;16.05;;
25163;SDS011;13440;50.860;13.662;2023-05-07T01:16:02;22.38;;;16.02;;
25163;SDS011;13440;50.860;13.662;2023-05-07T01:18:28;21.15;;;15.50;;
25163;SDS011;13440;50.860;13.662;2023-05-07T01:20:55;26.30;;;16.27;;
25163;SDS011;13440;50.860;13.662;2023-05-07T01:23:23;21.15;;;14.38;;
25163;SDS011;13440;50.860;13.662;2023-05-07T01:25:53;21.70;;;14.40;;
25163;SDS011;13440;50.860;13.662;2023-05-07T01:28:20;20.40;;;14.13;;
25163;SDS011;13440;50.860;13.662;2023-05-07T01:30:47;21.45;;;13.88;;
25163;SDS011;13440;50.860;13.662;2023-05-07T01:33:15;22.98;;;15.32;;
25163;SDS011;13440;50.860;13.662;2023-05-07T01:35:45;20.25;;;14.10;;
25163;SDS011;13440;50.860;13.662;2023-05-07T01:38:12;19.83;;;13.85;;
25163;SDS011;13440;50.860;13.662;2023-05-07T01:40:38;22.70;;;15.60;;
25163;SDS011;13440;50.860;13.662;2023-05-07T01:43:03;20.33;;;14.50;;
25163;SDS011;13440;50.860;13.662;2023-05-07T01:45:31;22.35;;;15.07;;
25163;SDS011;13440;50.860;13.662;2023-05-07T01:47:57;21.33;;;15.18;;
25163;SDS011;13440;50.860;13.662;2023-05-07T01:50:23;22.60;;;15.82;;
25163;SDS011;13440;50.860;13.662;2023-05-07T01:52:50;25.27;;;16.50;;
25163;SDS011;13440;50.860;13.662;2023-05-07T01:55:16;22.00;;;15.35;;
25163;SDS011;13440;50.860;13.662;2023-05-07T01:57:41;22.30;;;15.95;;
25163;SDS011;13440;50.860;13.662;2023-05-07T02:00:07;23.55;;;16.27;;
25163;SDS011;13440;50.860;13.662;2023-05-07T02:02:40;20.90;;;15.52;;
25163;SDS011;13440;50.860;13.662;2023-05-07T02:05:06;26.35;;;16.10;;
25163;SDS011;13440;50.860;13.662;2023-05-07T02:07:32;23.52;;;16.95;;
25163;SDS011;13440;50.860;13.662;2023-05-07T02:09:57;27.67;;;18.00;;
25163;SDS011;13440;50.860;13.662;2023-05-07T02:12:23;30.65;;;20.23;;
25163;SDS011;13440;50.860;13.662;2023-05-07T02:14:49;27.70;;;19.02;;
25163;SDS011;13440;50.860;13.662;2023-05-07T02:17:14;25.90;;;19.13;;
25163;SDS011;13440;50.860;13.662;2023-05-07T02:19:40;26.70;;;19.27;;
25163;SDS011;13440;50.860;13.662;2023-05-07T02:22:05;29.48;;;20.05;;
25163;SDS011;13440;50.860;13.662;2023-05-07T02:24:31;25.20;;;17.58;;
25163;SDS011;13440;50.860;13.662;2023-05-07T02:26:56;25.83;;;17.83;;
25163;SDS011;13440;50.860;13.662;2023-05-07T02:29:22;25.52;;;17.20;;
25163;SDS011;13440;50.860;13.662;2023-05-07T02:31:48;24.70;;;17.55;;
25163;SDS011;13440;50.860;13.662;2023-05-07T02:34:16;24.20;;;16.50;;
25163;SDS011;13440;50.860;13.662;2023-05-07T02:36:42;24.58;;;16.17;;
25163;SDS011;13440;50.860;13.662;2023-05-07T02:39:11;23.73;;;16.45;;
25163;SDS011;13440;50.860;13.662;2023-05-07T02:41:37;26.98;;;18.25;;
25163;SDS011;13440;50.860;13.662;2023-05-07T02:44:02;27.20;;;20.02;;
25163;SDS011;13440;50.860;13.662;2023-05-07T02:46:28;30.75;;;20.35;;
25163;SDS011;13440;50.860;13.662;2023-05-07T02:48:59;28.55;;;20.58;;
25163;SDS011;13440;50.860;13.662;2023-05-07T02:51:25;30.08;;;18.77;;
25163;SDS011;13440;50.860;13.662;2023-05-07T02:53:51;27.40;;;19.13;;
25163;SDS011;13440;50.860;13.662;2023-05-07T02:56:16;27.48;;;18.33;;
25163;SDS011;13440;50.860;13.662;2023-05-07T02:58:42;26.48;;;18.50;;
25163;SDS011;13440;50.860;13.662;2023-05-07T03:01:08;24.13;;;15.68;;
25163;SDS011;13440;50.860;13.662;2023-05-07T03:03:54;23.73;;;17.52;;
25163;SDS011;13440;50.860;13.662;2023-05-07T03:06:20;26.75;;;18.13;;
25163;SDS011;13440;50.860;13.662;2023-05-07T03:08:46;26.27;;;17.75;;
25163;SDS011;13440;50.860;13.662;2023-05-07T03:11:11;26.58;;;18.15;;
25163;SDS011;13440;50.860;13.662;2023-05-07T03:13:37;25.88;;;17.85;;
25163;SDS011;13440;50.860;13.662;2023-05-07T03:16:02;24.95;;;17.73;;
25163;SDS011;13440;50.860;13.662;2023-05-07T03:18:27;26.85;;;18.83;;
25163;SDS011;13440;50.860;13.662;2023-05-07T03:20:53;28.08;;;18.75;;
25163;SDS011;13440;50.860;13.662;2023-05-07T03:23:18;27.30;;;18.50;;
25163;SDS011;13440;50.860;13.662;2023-05-07T03:25:43;27.05;;;17.83;;
25163;SDS011;13440;50.860;13.662;2023-05-07T03:28:09;25.88;;;19.17;;
25163;SDS011;13440;50.860;13.662;2023-05-07T03:30:40;27.13;;;17.83;;
25163;SDS011;13440;50.860;13.662;2023-05-07T03:33:06;25.33;;;17.48;;
25163;SDS011;13440;50.860;13.662;2023-05-07T03:35:31;22.13;;;15.85;;
25163;SDS011;13440;50.860;13.662;2023-05-07T03:37:57;26.58;;;17.88;;
25163;SDS011;13440;50.860;13.662;2023-05-07T03:40:22;25.23;;;18.42;;
25163;SDS011;13440;50.860;13.662;2023-05-07T03:42:51;25.13;;;18.42;;
25163;SDS011;13440;50.860;13.662;2023-05-07T03:45:19;22.17;;;16.65;;
25163;SDS011;13440;50.860;13.662;2023-05-07T03:47:50;23.70;;;16.60;;
25163;SDS011;13440;50.860;13.662;2023-05-07T03:50:19;22.70;;;17.23;;
25163;SDS011;13440;50.860;13.662;2023-05-07T03:52:44;23.83;;;17.73;;
25163;SDS011;13440;50.860;13.662;2023-05-07T03:55:10;25.92;;;17.50;;
25163;SDS011;13440;50.860;13.662;2023-05-07T03:57:39;26.10;;;19.25;;
25163;SDS011;13440;50.860;13.662;2023-05-07T04:00:04;28.08;;;20.08;;
25163;SDS011;13440;50.860;13.662;2023-05-07T04:02:44;32.70;;;22.75;;
25163;SDS011;13440;50.860;13.662;2023-05-07T04:05:10;33.15;;;23.42;;
25163;SDS011;13440;50.860;13.662;2023-05-07T04:07:37;40.47;;;28.10;;
25163;SDS011;13440;50.860;13.662;2023-05-07T04:10:03;120.70;;;72.80;;
25163;SDS011;13440;50.860;13.662;2023-05-07T04:12:29;90.75;;;59.63;;
25163;SDS011;13440;50.860;13.662;2023-05-07T04:14:55;28.23;;;19.88;;
25163;SDS011;13440;50.860;13.662;2023-05-07T04:17:22;47.20;;;31.75;;
25163;SDS011;13440;50.860;13.662;2023-05-07T04:19:48;28.77;;;19.13;;
25163;SDS011;13440;50.860;13.662;2023-05-07T04:22:14;27.52;;;19.65;;
25163;SDS011;13440;50.860;13.662;2023-05-07T04:24:40;26.95;;;19.52;;
25163;SDS011;13440;50.860;13.662;2023-05-07T04:27:06;25.35;;;17.63;;
25163;SDS011;13440;50.860;13.662;2023-05-07T04:29:31;24.48;;;17.80;;
25163;SDS011;13440;50.860;13.662;2023-05-07T04:31:57;26.20;;;17.85;;
25163;SDS011;13440;50.860;13.662;2023-05-07T04:34:24;173.55;;;104.82;;
25163;SDS011;13440;50.860;13.662;2023-05-07T04:36:49;154.18;;;85.35;;
25163;SDS011;13440;50.860;13.662;2023-05-07T04:39:15;22.08;;;16.65;;
25163;SDS011;13440;50.860;13.662;2023-05-07T04:41:43;20.15;;;14.88;;
25163;SDS011;13440;50.860;13.662;2023-05-07T04:44:09;25.77;;;18.42;;
25163;SDS011;13440;50.860;13.662;2023-05-07T04:46:34;15.68;;;12.27;;
25163;SDS011;13440;50.860;13.662;2023-05-07T04:49:00;18.80;;;13.10;;
25163;SDS011;13440;50.860;13.662;2023-05-07T04:51:25;18.33;;;13.00;;
25163;SDS011;13440;50.860;13.662;2023-05-07T04:53:51;16.50;;;13.02;;
25163;SDS011;13440;50.860;13.662;2023-05-07T04:56:16;15.38;;;12.20;;
25163;SDS011;13440;50.860;13.662;2023-05-07T04:58:43;17.65;;;12.52;;
25163;SDS011;13440;50.860;13.662;2023-05-07T05:01:09;18.35;;;14.10;;
25163;SDS011;13440;50.860;13.662;2023-05-07T05:03:36;17.77;;;14.13;;
25163;SDS011;13440;50.860;13.662;2023-05-07T05:06:01;19.05;;;14.40;;
25163;SDS011;13440;50.860;13.662;2023-05-07T05:08:31;21.25;;;14.32;;
25163;SDS011;13440;50.860;13.662;2023-05-07T05:10:56;20.52;;;15.00;;
25163;SDS011;13440;50.860;13.662;2023-05-07T05:13:22;21.50;;;14.23;;
25163;SDS011;13440;50.860;13.662;2023-05-07T05:15:47;17.75;;;14.32;;
25163;SDS011;13440;50.860;13.662;2023-05-07T05:18:13;17.77;;;13.10;;
25163;SDS011;13440;50.860;13.662;2023-05-07T05:20:39;19.02;;;13.90;;
25163;SDS011;13440;50.860;13.662;2023-05-07T05:23:05;19.20;;;13.77;;
25163;SDS011;13440;50.860;13.662;2023-05-07T05:25:30;19.60;;;14.18;;
25163;SDS011;13440;50.860;13.662;2023-05-07T05:27:57;20.05;;;14.85;;
25163;SDS011;13440;50.860;13.662;2023-05-07T05:30:23;19.80;;;14.05;;
25163;SDS011;13440;50.860;13.662;2023-05-07T05:32:48;18.27;;;14.55;;
25163;SDS011;13440;50.860;13.662;2023-05-07T05:35:14;17.77;;;13.80;;
25163;SDS011;13440;50.860;13.662;2023-05-07T05:37:40;19.20;;;13.73;;
25163;SDS011;13440;50.860;13.662;2023-05-07T05:40:06;16.92;;;12.77;;
25163;SDS011;13440;50.860;13.662;2023-05-07T05:42:32;15.48;;;12.00;;
25163;SDS011;13440;50.860;13.662;2023-05-07T05:44:58;26.90;;;17.48;;
25163;SDS011;13440;50.860;13.662;2023-05-07T05:47:24;16.23;;;12.05;;
25163;SDS011;13440;50.860;13.662;2023-05-07T05:49:53;14.82;;;11.00;;
25163;SDS011;13440;50.860;13.662;2023-05-07T05:52:19;52.17;;;31.55;;
25163;SDS011;13440;50.860;13.662;2023-05-07T05:54:45;15.50;;;11.93;;
25163;SDS011;13440;50.860;13.662;2023-05-07T05:57:10;15.23;;;12.23;;
25163;SDS011;13440;50.860;13.662;2023-05-07T05:59:36;15.07;;;11.80;;
25163;SDS011;13440;50.860;13.662;2023-05-07T06:02:01;15.98;;;11.63;;
25163;SDS011;13440;50.860;13.662;2023-05-07T06:04:27;14.10;;;10.02;;
25163;SDS011;13440;50.860;13.662;2023-05-07T06:06:53;11.95;;;9.57;;
25163;SDS011;13440;50.860;13.662;2023-05-07T06:09:19;11.77;;;9.27;;
25163;SDS011;13440;50.860;13.662;2023-05-07T06:11:45;10.48;;;8.52;;
25163;SDS011;13440;50.860;13.662;2023-05-07T06:14:11;13.50;;;8.43;;
25163;SDS011;13440;50.860;13.662;2023-05-07T06:16:37;10.98;;;8.60;;
25163;SDS011;13440;50.860;13.662;2023-05-07T06:19:04;11.10;;;8.65;;
25163;SDS011;13440;50.860;13.662;2023-05-07T06:21:30;11.00;;;8.18;;
25163;SDS011;13440;50.860;13.662;2023-05-07T06:23:55;9.93;;;8.27;;
25163;SDS011;13440;50.860;13.662;2023-05-07T06:26:21;10.48;;;8.60;;
25163;SDS011;13440;50.860;13.662;2023-05-07T06:28:47;19.17;;;13.00;;
25163;SDS011;13440;50.860;13.662;2023-05-07T06:31:14;12.15;;;9.70;;
25163;SDS011;13440;50.860;13.662;2023-05-07T06:33:44;12.30;;;9.38;;
25163;SDS011;13440;50.860;13.662;2023-05-07T06:36:10;11.25;;;8.77;;
25163;SDS011;13440;50.860;13.662;2023-05-07T06:38:35;9.52;;;7.80;;
25163;SDS011;13440;50.860;13.662;2023-05-07T06:41:01;10.90;;;8.38;;
25163;SDS011;13440;50.860;13.662;2023-05-07T06:43:26;13.02;;;10.35;;
25163;SDS011;13440;50.860;13.662;2023-05-07T06:46:12;13.57;;;9.98;;
25163;SDS011;13440;50.860;13.662;2023-05-07T06:48:37;11.40;;;9.27;;
25163;SDS011;13440;50.860;13.662;2023-05-07T06:51:04;13.07;;;9.95;;
25163;SDS011;13440;50.860;13.662;2023-05-07T06:53:30;12.52;;;9.00;;
25163;SDS011;13440;50.860;13.662;2023-05-07T06:55:56;13.52;;;9.60;;
25163;SDS011;13440;50.860;13.662;2023-05-07T06:58:22;12.55;;;9.45;;
25163;SDS011;13440;50.860;13.662;2023-05-07T07:00:47;13.23;;;9.23;;
25163;SDS011;13440;50.860;13.662;2023-05-07T07:03:12;12.35;;;9.52;;
25163;SDS011;13440;50.860;13.662;2023-05-07T07:05:40;12.88;;;9.68;;
25163;SDS011;13440;50.860;13.662;2023-05-07T07:08:06;15.65;;;10.10;;
25163;SDS011;13440;50.860;13.662;2023-05-07T07:10:31;10.77;;;8.63;;
25163;SDS011;13440;50.860;13.662;2023-05-07T07:12:56;11.65;;;9.38;;
25163;SDS011;13440;50.860;13.662;2023-05-07T07:15:22;11.15;;;9.02;;
25163;SDS011;13440;50.860;13.662;2023-05-07T07:17:50;13.02;;;8.98;;
25163;SDS011;13440;50.860;13.662;2023-05-07T07:20:15;11.60;;;8.10;;
25163;SDS011;13440;50.860;13.662;2023-05-07T07:22:43;11.43;;;8.55;;
25163;SDS011;13440;50.860;13.662;2023-05-07T07:25:08;12.18;;;9.23;;
25163;SDS011;13440;50.860;13.662;2023-05-07T07:27:34;11.02;;;9.02;;
25163;SDS011;13440;50.860;13.662;2023-05-07T07:30:00;12.32;;;8.82;;
25163;SDS011;13440;50.860;13.662;2023-05-07T07:32:27;9.50;;;7.97;;
25163;SDS011;13440;50.860;13.662;2023-05-07T07:34:53;10.45;;;8.65;;
25163;SDS011;13440;50.860;13.662;2023-05-07T07:37:18;8.68;;;7.43;;
25163;SDS011;13440;50.860;13.662;2023-05-07T07:39:44;9.88;;;7.40;;
25163;SDS011;13440;50.860;13.662;2023-05-07T07:42:10;9.65;;;7.32;;
25163;SDS011;13440;50.860;13.662;2023-05-07T07:44:35;7.32;;;6.50;;
25163;SDS011;13440;50.860;13.662;2023-05-07T07:47:05;7.70;;;6.45;;
25163;SDS011;13440;50.860;13.662;2023-05-07T07:49:31;8.10;;;7.00;;
25163;SDS011;13440;50.860;13.662;2023-05-07T07:52:01;7.78;;;6.68;;
25163;SDS011;13440;50.860;13.662;2023-05-07T07:54:28;7.57;;;6.65;;
25163;SDS011;13440;50.860;13.662;2023-05-07T07:56:54;7.88;;;6.40;;
25163;SDS011;13440;50.860;13.662;2023-05-07T07:59:20;7.15;;;6.43;;
25163;SDS011;13440;50.860;13.662;2023-05-07T08:01:47;8.38;;;6.60;;
25163;SDS011;13440;50.860;13.662;2023-05-07T08:04:15;10.77;;;8.52;;
25163;SDS011;13440;50.860;13.662;2023-05-07T08:06:41;7.05;;;5.97;;
25163;SDS011;13440;50.860;13.662;2023-05-07T08:09:08;7.78;;;6.55;;
25163;SDS011;13440;50.860;13.662;2023-05-07T08:11:34;8.35;;;6.90;;
25163;SDS011;13440;50.860;13.662;2023-05-07T08:14:00;7.93;;;6.50;;
25163;SDS011;13440;50.860;13.662;2023-05-07T08:16:26;9.05;;;7.22;;
25163;SDS011;13440;50.860;13.662;2023-05-07T08:18:52;9.52;;;7.68;;
25163;SDS011;13440;50.860;13.662;2023-05-07T08:21:17;7.82;;;6.60;;
25163;SDS011;13440;50.860;13.662;2023-05-07T08:23:43;8.30;;;6.50;;
25163;SDS011;13440;50.860;13.662;2023-05-07T08:26:08;7.32;;;6.20;;
25163;SDS011;13440;50.860;13.662;2023-05-07T08:28:34;8.15;;;6.93;;
25163;SDS011;13440;50.860;13.662;2023-05-07T08:31:00;8.20;;;6.93;;
25163;SDS011;13440;50.860;13.662;2023-05-07T08:33:27;11.63;;;8.25;;
25163;SDS011;13440;50.860;13.662;2023-05-07T08:35:53;9.77;;;7.85;;
25163;SDS011;13440;50.860;13.662;2023-05-07T08:38:18;9.70;;;7.55;;
25163;SDS011;13440;50.860;13.662;2023-05-07T08:40:44;9.57;;;7.68;;
25163;SDS011;13440;50.860;13.662;2023-05-07T08:43:15;9.23;;;7.30;;
25163;SDS011;13440;50.860;13.662;2023-05-07T08:45:43;8.90;;;7.20;;
25163;SDS011;13440;50.860;13.662;2023-05-07T08:48:14;8.63;;;7.47;;
25163;SDS011;13440;50.860;13.662;2023-05-07T08:50:46;8.77;;;7.07;;
25163;SDS011;13440;50.860;13.662;2023-05-07T08:53:11;7.88;;;7.07;;
25163;SDS011;13440;50.860;13.662;2023-05-07T08:55:38;8.30;;;7.32;;
25163;SDS011;13440;50.860;13.662;2023-05-07T08:58:03;9.05;;;6.90;;
25163;SDS011;13440;50.860;13.662;2023-05-07T09:00:30;7.47;;;6.50;;
25163;SDS011;13440;50.860;13.662;2023-05-07T09:02:57;7.30;;;6.50;;
25163;SDS011;13440;50.860;13.662;2023-05-07T09:05:23;10.32;;;7.55;;
25163;SDS011;13440;50.860;13.662;2023-05-07T09:07:49;8.00;;;7.03;;
25163;SDS011;13440;50.860;13.662;2023-05-07T09:10:15;7.60;;;6.80;;
25163;SDS011;13440;50.860;13.662;2023-05-07T09:12:42;10.63;;;8.85;;
25163;SDS011;13440;50.860;13.662;2023-05-07T09:15:10;10.77;;;8.63;;
25163;SDS011;13440;50.860;13.662;2023-05-07T09:17:35;9.27;;;7.55;;
25163;SDS011;13440;50.860;13.662;2023-05-07T09:20:04;9.40;;;7.82;;
25163;SDS011;13440;50.860;13.662;2023-05-07T09:22:31;9.30;;;7.72;;
25163;SDS011;13440;50.860;13.662;2023-05-07T09:25:06;7.28;;;6.57;;
25163;SDS011;13440;50.860;13.662;2023-05-07T09:27:34;10.73;;;7.15;;
25163;SDS011;13440;50.860;13.662;2023-05-07T09:30:02;7.32;;;6.63;;
25163;SDS011;13440;50.860;13.662;2023-05-07T09:32:29;6.68;;;6.07;;
25163;SDS011;13440;50.860;13.662;2023-05-07T09:34:57;7.50;;;6.70;;
25163;SDS011;13440;50.860;13.662;2023-05-07T09:37:23;7.03;;;6.40;;
25163;SDS011;13440;50.860;13.662;2023-05-07T09:39:50;7.47;;;6.70;;
25163;SDS011;13440;50.860;13.662;2023-05-07T09:42:23;8.00;;;7.20;;
25163;SDS011;13440;50.860;13.662;2023-05-07T09:44:51;6.78;;;6.18;;
25163;SDS011;13440;50.860;13.662;2023-05-07T09:47:19;6.78;;;6.07;;
25163;SDS011;13440;50.860;13.662;2023-05-07T09:49:49;7.43;;;5.75;;
25163;SDS011;13440;50.860;13.662;2023-05-07T09:52:18;7.22;;;6.53;;
25163;SDS011;13440;50.860;13.662;2023-05-07T09:54:48;6.57;;;5.97;;
25163;SDS011;13440;50.860;13.662;2023-05-07T09:57:16;6.45;;;5.85;;
25163;SDS011;13440;50.860;13.662;2023-05-07T09:59:46;6.55;;;5.95;;
25163;SDS011;13440;50.860;13.662;2023-05-07T10:02:15;7.32;;;5.88;;
25163;SDS011;13440;50.860;13.662;2023-05-07T10:04:46;7.88;;;7.10;;
25163;SDS011;13440;50.860;13.662;2023-05-07T10:07:16;8.00;;;7.20;;
25163;SDS011;13440;50.860;13.662;2023-05-07T10:09:41;6.75;;;6.05;;
25163;SDS011;13440;50.860;13.662;2023-05-07T10:12:15;7.38;;;6.68;;
25163;SDS011;13440;50.860;13.662;2023-05-07T10:14:41;7.82;;;7.03;;
25163;SDS011;13440;50.860;13.662;2023-05-07T10:17:08;8.18;;;7.13;;
25163;SDS011;13440;50.860;13.662;2023-05-07T10:19:34;8.95;;;8.05;;
25163;SDS011;13440;50.860;13.662;2023-05-07T10:22:02;8.65;;;7.80;;
25163;SDS011;13440;50.860;13.662;2023-05-07T10:24:33;8.80;;;8.00;;
25163;SDS011;13440;50.860;13.662;2023-05-07T10:27:01;8.95;;;8.05;;
25163;SDS011;13440;50.860;13.662;2023-05-07T10:29:33;8.65;;;7.85;;
25163;SDS011;13440;50.860;13.662;2023-05-07T10:32:29;8.45;;;7.15;;
25163;SDS011;13440;50.860;13.662;2023-05-07T10:34:59;7.20;;;6.50;;
25163;SDS011;13440;50.860;13.662;2023-05-07T10:37:28;9.40;;;7.47;;
25163;SDS011;13440;50.860;13.662;2023-05-07T10:39:55;7.88;;;7.07;;
25163;SDS011;13440;50.860;13.662;2023-05-07T10:42:20;7.85;;;7.05;;
25163;SDS011;13440;50.860;13.662;2023-05-07T10:44:50;9.60;;;7.13;;
25163;SDS011;13440;50.860;13.662;2023-05-07T10:47:22;7.10;;;6.25;;
25163;SDS011;13440;50.860;13.662;2023-05-07T10:52:21;7.22;;;6.47;;
25163;SDS011;13440;50.860;13.662;2023-05-07T10:55:19;7.63;;;6.82;;
25163;SDS011;13440;50.860;13.662;2023-05-07T10:58:23;7.18;;;6.47;;
25163;SDS011;13440;50.860;13.662;2023-05-07T11:00:56;7.25;;;6.30;;
25163;SDS011;13440;50.860;13.662;2023-05-07T11:03:31;7.70;;;6.63;;
25163;SDS011;13440;50.860;13.662;2023-05-07T11:06:08;8.50;;;7.13;;
25163;SDS011;13440;50.860;13.662;2023-05-07T11:08:52;8.18;;;7.32;;
25163;SDS011;13440;50.860;13.662;2023-05-07T11:17:09;7.07;;;6.38;;
25163;SDS011;13440;50.860;13.662;2023-05-07T11:19:48;8.15;;;7.35;;
25163;SDS011;13440;50.860;13.662;2023-05-07T11:25:07;8.80;;;7.90;;
25163;SDS011;13440;50.860;13.662;2023-05-07T11:27:33;13.00;;;8.25;;
25163;SDS011;13440;50.860;13.662;2023-05-07T11:29:59;8.10;;;7.22;;
25163;SDS011;13440;50.860;13.662;2023-05-07T11:32:30;7.15;;;6.45;;
25163;SDS011;13440;50.860;13.662;2023-05-07T11:34:59;7.18;;;6.32;;
25163;SDS011;13440;50.860;13.662;2023-05-07T11:37:26;7.93;;;7.22;;
25163;SDS011;13440;50.860;13.662;2023-05-07T11:40:04;7.70;;;6.70;;
25163;SDS011;13440;50.860;13.662;2023-05-07T11:42:35;6.80;;;6.10;;
25163;SDS011;13440;50.860;13.662;2023-05-07T11:45:02;6.40;;;5.80;;
25163;SDS011;13440;50.860;13.662;2023-05-07T11:47:31;6.60;;;6.00;;
25163;SDS011;13440;50.860;13.662;2023-05-07T11:49:57;7.03;;;6.30;;
25163;SDS011;13440;50.860;13.662;2023-05-07T11:52:27;6.53;;;5.93;;
25163;SDS011;13440;50.860;13.662;2023-05-07T11:54:53;6.45;;;5.85;;
25163;SDS011;13440;50.860;13.662;2023-05-07T11:57:24;7.47;;;6.28;;
25163;SDS011;13440;50.860;13.662;2023-05-07T12:02:37;6.72;;;6.00;;
25163;SDS011;13440;50.860;13.662;2023-05-07T12:05:03;7.05;;;6.35;;
25163;SDS011;13440;50.860;13.662;2023-05-07T12:07:29;6.43;;;5.82;;
25163;SDS011;13440;50.860;13.662;2023-05-07T12:09:54;6.72;;;6.03;;
25163;SDS011;13440;50.860;13.662;2023-05-07T12:12:20;6.50;;;5.90;;
25163;SDS011;13440;50.860;13.662;2023-05-07T12:14:45;6.82;;;6.07;;
25163;SDS011;13440;50.860;13.662;2023-05-07T12:17:11;6.63;;;5.93;;
25163;SDS011;13440;50.860;13.662;2023-05-07T12:19:38;7.85;;;6.20;;
25163;SDS011;13440;50.860;13.662;2023-05-07T12:22:04;7.22;;;6.53;;
25163;SDS011;13440;50.860;13.662;2023-05-07T12:24:46;7.80;;;7.10;;
25163;SDS011;13440;50.860;13.662;2023-05-07T12:27:14;7.75;;;6.97;;
25163;SDS011;13440;50.860;13.662;2023-05-07T12:29:39;8.10;;;6.28;;
25163;SDS011;13440;50.860;13.662;2023-05-07T12:32:12;6.85;;;6.25;;
25163;SDS011;13440;50.860;13.662;2023-05-07T12:34:39;7.80;;;7.10;;
25163;SDS011;13440;50.860;13.662;2023-05-07T12:37:04;7.38;;;6.63;;
25163;SDS011;13440;50.860;13.662;2023-05-07T12:39:30;8.38;;;6.72;;
25163;SDS011;13440;50.860;13.662;2023-05-07T12:41:56;7.82;;;6.70;;
25163;SDS011;13440;50.860;13.662;2023-05-07T12:44:23;7.53;;;6.72;;
25163;SDS011;13440;50.860;13.662;2023-05-07T12:46:50;7.30;;;6.63;;
25163;SDS011;13440;50.860;13.662;2023-05-07T12:49:16;7.00;;;6.30;;
25163;SDS011;13440;50.860;13.662;2023-05-07T12:51:43;6.63;;;6.03;;
25163;SDS011;13440;50.860;13.662;2023-05-07T12:54:08;7.00;;;6.30;;
25163;SDS011;13440;50.860;13.662;2023-05-07T12:56:35;8.55;;;7.65;;
25163;SDS011;13440;50.860;13.662;2023-05-07T12:59:01;7.22;;;6.53;;
25163;SDS011;13440;50.860;13.662;2023-05-07T13:01:29;7.95;;;7.07;;
25163;SDS011;13440;50.860;13.662;2023-05-07T13:04:02;6.93;;;6.22;;
25163;SDS011;13440;50.860;13.662;2023-05-07T13:06:29;7.82;;;7.03;;
25163;SDS011;13440;50.860;13.662;2023-05-07T13:08:56;7.57;;;6.88;;
25163;SDS011;13440;50.860;13.662;2023-05-07T13:11:21;6.85;;;6.15;;
25163;SDS011;13440;50.860;13.662;2023-05-07T13:13:46;7.70;;;7.00;;
25163;SDS011;13440;50.860;13.662;2023-05-07T13:16:12;8.65;;;7.80;;
25163;SDS011;13440;50.860;13.662;2023-05-07T13:18:38;8.35;;;7.50;;
25163;SDS011;13440;50.860;13.662;2023-05-07T13:21:04;7.70;;;7.00;;
25163;SDS011;13440;50.860;13.662;2023-05-07T13:23:29;7.20;;;6.50;;
25163;SDS011;13440;50.860;13.662;2023-05-07T13:25:55;8.77;;;7.93;;
25163;SDS011;13440;50.860;13.662;2023-05-07T13:28:21;7.78;;;7.00;;
25163;SDS011;13440;50.860;13.662;2023-05-07T13:30:47;11.45;;;9.73;;
25163;SDS011;13440;50.860;13.662;2023-05-07T13:33:12;9.15;;;8.15;;
25163;SDS011;13440;50.860;13.662;2023-05-07T13:35:38;13.95;;;10.98;;
25163;SDS011;13440;50.860;13.662;2023-05-07T13:38:03;9.93;;;8.27;;
25163;SDS011;13440;50.860;13.662;2023-05-07T13:40:29;8.05;;;7.25;;
25163;SDS011;13440;50.860;13.662;2023-05-07T13:42:56;8.43;;;7.53;;
25163;SDS011;13440;50.860;13.662;2023-05-07T13:45:23;7.63;;;6.85;;
25163;SDS011;13440;50.860;13.662;2023-05-07T13:47:51;8.18;;;7.35;;
25163;SDS011;13440;50.860;13.662;2023-05-07T13:50:16;30.35;;;23.23;;
25163;SDS011;13440;50.860;13.662;2023-05-07T13:52:42;9.43;;;8.43;;
25163;SDS011;13440;50.860;13.662;2023-05-07T13:55:10;9.00;;;8.10;;
25163;SDS011;13440;50.860;13.662;2023-05-07T13:57:36;8.68;;;7.47;;
25163;SDS011;13440;50.860;13.662;2023-05-07T14:00:02;8.45;;;7.20;;
25163;SDS011;13440;50.860;13.662;2023-05-07T14:02:40;8.55;;;7.75;;
25163;SDS011;13440;50.860;13.662;2023-05-07T14:05:06;8.77;;;7.93;;
25163;SDS011;13440;50.860;13.662;2023-05-07T14:07:32;8.68;;;7.85;;
25163;SDS011;13440;50.860;13.662;2023-05-07T14:09:57;8.27;;;7.45;;
25163;SDS011;13440;50.860;13.662;2023-05-07T14:12:23;9.30;;;7.75;;
25163;SDS011;13440;50.860;13.662;2023-05-07T14:14:48;9.00;;;8.10;;
25163;SDS011;13440;50.860;13.662;2023-05-07T14:17:15;9.27;;;7.47;;
25163;SDS011;13440;50.860;13.662;2023-05-07T14:19:42;7.70;;;6.90;;
25163;SDS011;13440;50.860;13.662;2023-05-07T14:22:07;9.35;;;7.13;;
25163;SDS011;13440;50.860;13.662;2023-05-07T14:24:32;10.25;;;7.45;;
25163;SDS011;13440;50.860;13.662;2023-05-07T14:26:58;9.18;;;7.53;;
25163;SDS011;13440;50.860;13.662;2023-05-07T14:29:23;8.60;;;7.20;;
25163;SDS011;13440;50.860;13.662;2023-05-07T14:31:49;8.07;;;7.25;;
25163;SDS011;13440;50.860;13.662;2023-05-07T14:34:14;7.45;;;6.72;;